sensor_id;sensor_type;location;lat;lon;timestamp;P1;durP1;ratioP1;P2;durP2;ratioP2
75216;SDS011;63800;51.972;5.682;2022-10-31T00:02:03;21.95;;;11.85;;
75216;SDS011;63800;51.972;5.682;2022-10-31T00:04:29;15.20;;;10.10;;
75216;SDS011;63800;51.972;5.682;2022-10-31T00:06:54;18.23;;;10.48;;
75216;SDS011;63800;51.972;5.682;2022-10-31T00:09:20;15.95;;;9.55;;
75216;SDS011;63800;51.972;5.682;2022-10-31T00:11:45;14.38;;;9.32;;
75216;SDS011;63800;51.972;5.682;2022-10-31T00:14:10;15.57;;;9.63;;
75216;SDS011;63800;51.972;5.682;2022-10-31T00:16:36;17.50;;;9.70;;
75216;SDS011;63800;51.972;5.682;2022-10-31T00:19:03;15.82;;;10.25;;
75216;SDS011;63800;51.972;5.682;2022-10-31T00:21:30;17.42;;;10.80;;
75216;SDS011;63800;51.972;5.682;2022-10-31T00:23:56;19.38;;;10.10;;
75216;SDS011;63800;51.972;5.682;2022-10-31T00:26:23;16.27;;;10.40;;
75216;SDS011;63800;51.972;5.682;2022-10-31T00:28:49;17.63;;;10.43;;
75216;SDS011;63800;51.972;5.682;2022-10-31T00:31:15;17.13;;;10.20;;
75216;SDS011;63800;51.972;5.682;2022-10-31T00:33:42;16.30;;;10.65;;
75216;SDS011;63800;51.972;5.682;2022-10-31T00:36:08;18.48;;;10.20;;
75216;SDS011;63800;51.972;5.682;2022-10-31T00:38:37;16.90;;;10.48;;
75216;SDS011;63800;51.972;5.682;2022-10-31T00:41:02;18.50;;;10.20;;
75216;SDS011;63800;51.972;5.682;2022-10-31T00:43:28;18.52;;;11.25;;
75216;SDS011;63800;51.972;5.682;2022-10-31T00:45:53;20.83;;;11.55;;
75216;SDS011;63800;51.972;5.682;2022-10-31T00:48:19;19.35;;;10.38;;
75216;SDS011;63800;51.972;5.682;2022-10-31T00:50:44;16.08;;;10.15;;
75216;SDS011;63800;51.972;5.682;2022-10-31T00:53:10;18.08;;;10.30;;
75216;SDS011;63800;51.972;5.682;2022-10-31T00:55:35;19.98;;;9.80;;
75216;SDS011;63800;51.972;5.682;2022-10-31T00:58:01;14.95;;;9.77;;
75216;SDS011;63800;51.972;5.682;2022-10-31T01:00:26;18.33;;;10.40;;
75216;SDS011;63800;51.972;5.682;2022-10-31T01:02:52;19.08;;;9.23;;
75216;SDS011;63800;51.972;5.682;2022-10-31T01:05:18;19.88;;;9.30;;
75216;SDS011;63800;51.972;5.682;2022-10-31T01:07:43;17.25;;;9.35;;
75216;SDS011;63800;51.972;5.682;2022-10-31T01:10:09;15.25;;;9.05;;
75216;SDS011;63800;51.972;5.682;2022-10-31T01:12:36;17.38;;;8.98;;
75216;SDS011;63800;51.972;5.682;2022-10-31T01:15:06;16.10;;;8.88;;
75216;SDS011;63800;51.972;5.682;2022-10-31T01:17:33;13.00;;;8.20;;
75216;SDS011;63800;51.972;5.682;2022-10-31T01:19:59;13.30;;;8.43;;
75216;SDS011;63800;51.972;5.682;2022-10-31T01:22:24;14.55;;;8.80;;
75216;SDS011;63800;51.972;5.682;2022-10-31T01:24:50;15.77;;;8.77;;
75216;SDS011;63800;51.972;5.682;2022-10-31T01:27:15;13.50;;;8.30;;
75216;SDS011;63800;51.972;5.682;2022-10-31T01:29:40;14.80;;;8.60;;
75216;SDS011;63800;51.972;5.682;2022-10-31T01:32:06;14.50;;;9.43;;
75216;SDS011;63800;51.972;5.682;2022-10-31T01:34:31;14.27;;;8.50;;
75216;SDS011;63800;51.972;5.682;2022-10-31T01:36:57;14.45;;;8.80;;
75216;SDS011;63800;51.972;5.682;2022-10-31T01:39:22;14.82;;;8.52;;
75216;SDS011;63800;51.972;5.682;2022-10-31T01:41:49;15.30;;;9.07;;
75216;SDS011;63800;51.972;5.682;2022-10-31T01:49:20;11.43;;;7.50;;
75216;SDS011;63800;51.972;5.682;2022-10-31T01:51:54;20.88;;;9.73;;
75216;SDS011;63800;51.972;5.682;2022-10-31T01:54:28;13.75;;;8.48;;
75216;SDS011;63800;51.972;5.682;2022-10-31T01:56:57;17.17;;;8.50;;
75216;SDS011;63800;51.972;5.682;2022-10-31T01:59:24;17.08;;;8.45;;
75216;SDS011;63800;51.972;5.682;2022-10-31T02:01:52;13.90;;;8.48;;
75216;SDS011;63800;51.972;5.682;2022-10-31T02:04:18;17.67;;;8.18;;
75216;SDS011;63800;51.972;5.682;2022-10-31T02:06:46;14.23;;;8.20;;
75216;SDS011;63800;51.972;5.682;2022-10-31T02:09:16;15.35;;;7.68;;
75216;SDS011;63800;51.972;5.682;2022-10-31T02:11:45;13.80;;;8.00;;
75216;SDS011;63800;51.972;5.682;2022-10-31T02:14:11;13.43;;;7.85;;
75216;SDS011;63800;51.972;5.682;2022-10-31T02:16:37;16.63;;;8.80;;
75216;SDS011;63800;51.972;5.682;2022-10-31T02:19:03;16.27;;;8.27;;
75216;SDS011;63800;51.972;5.682;2022-10-31T02:30:09;11.88;;;8.07;;
75216;SDS011;63800;51.972;5.682;2022-10-31T02:38:17;14.05;;;7.60;;
75216;SDS011;63800;51.972;5.682;2022-10-31T02:46:24;11.50;;;7.40;;
75216;SDS011;63800;51.972;5.682;2022-10-31T02:48:58;18.15;;;8.13;;
75216;SDS011;63800;51.972;5.682;2022-10-31T02:51:29;16.70;;;8.30;;
75216;SDS011;63800;51.972;5.682;2022-10-31T02:53:54;12.77;;;7.82;;
75216;SDS011;63800;51.972;5.682;2022-10-31T02:56:19;12.65;;;7.68;;
75216;SDS011;63800;51.972;5.682;2022-10-31T02:58:48;15.30;;;8.05;;
75216;SDS011;63800;51.972;5.682;2022-10-31T03:01:51;14.30;;;7.95;;
75216;SDS011;63800;51.972;5.682;2022-10-31T03:15:23;15.68;;;8.98;;
75216;SDS011;63800;51.972;5.682;2022-10-31T03:18:08;17.52;;;9.20;;
75216;SDS011;63800;51.972;5.682;2022-10-31T03:20:42;16.05;;;8.52;;
75216;SDS011;63800;51.972;5.682;2022-10-31T03:23:14;15.15;;;8.15;;
75216;SDS011;63800;51.972;5.682;2022-10-31T03:25:41;12.65;;;8.20;;
75216;SDS011;63800;51.972;5.682;2022-10-31T03:28:10;12.85;;;8.25;;
75216;SDS011;63800;51.972;5.682;2022-10-31T03:30:38;13.60;;;8.82;;
75216;SDS011;63800;51.972;5.682;2022-10-31T03:33:09;14.00;;;8.98;;
75216;SDS011;63800;51.972;5.682;2022-10-31T03:35:38;16.15;;;8.93;;
75216;SDS011;63800;51.972;5.682;2022-10-31T03:38:07;14.43;;;9.25;;
75216;SDS011;63800;51.972;5.682;2022-10-31T03:40:35;16.50;;;9.40;;
75216;SDS011;63800;51.972;5.682;2022-10-31T03:43:07;15.02;;;9.23;;
75216;SDS011;63800;51.972;5.682;2022-10-31T03:45:40;17.40;;;9.60;;
75216;SDS011;63800;51.972;5.682;2022-10-31T03:48:08;16.13;;;9.15;;
75216;SDS011;63800;51.972;5.682;2022-10-31T03:50:39;18.13;;;10.23;;
75216;SDS011;63800;51.972;5.682;2022-10-31T03:53:10;16.27;;;10.25;;
75216;SDS011;63800;51.972;5.682;2022-10-31T03:58:19;14.95;;;9.48;;
75216;SDS011;63800;51.972;5.682;2022-10-31T04:00:48;18.40;;;9.82;;
75216;SDS011;63800;51.972;5.682;2022-10-31T04:03:18;15.90;;;10.60;;
75216;SDS011;63800;51.972;5.682;2022-10-31T04:05:49;15.17;;;10.50;;
75216;SDS011;63800;51.972;5.682;2022-10-31T04:08:17;15.48;;;9.23;;
75216;SDS011;63800;51.972;5.682;2022-10-31T04:10:46;15.73;;;10.82;;
75216;SDS011;63800;51.972;5.682;2022-10-31T04:13:14;14.90;;;10.13;;
75216;SDS011;63800;51.972;5.682;2022-10-31T04:15:44;15.07;;;10.02;;
75216;SDS011;63800;51.972;5.682;2022-10-31T04:18:10;15.85;;;9.02;;
75216;SDS011;63800;51.972;5.682;2022-10-31T04:20:37;15.27;;;10.23;;
75216;SDS011;63800;51.972;5.682;2022-10-31T04:23:14;15.15;;;9.82;;
75216;SDS011;63800;51.972;5.682;2022-10-31T04:25:51;16.70;;;9.98;;
75216;SDS011;63800;51.972;5.682;2022-10-31T04:28:17;16.25;;;10.32;;
75216;SDS011;63800;51.972;5.682;2022-10-31T04:30:43;15.32;;;9.80;;
75216;SDS011;63800;51.972;5.682;2022-10-31T04:33:08;20.15;;;10.38;;
75216;SDS011;63800;51.972;5.682;2022-10-31T04:35:34;20.85;;;11.02;;
75216;SDS011;63800;51.972;5.682;2022-10-31T04:38:00;14.35;;;9.13;;
75216;SDS011;63800;51.972;5.682;2022-10-31T04:40:25;14.73;;;9.82;;
75216;SDS011;63800;51.972;5.682;2022-10-31T04:42:50;16.55;;;10.50;;
75216;SDS011;63800;51.972;5.682;2022-10-31T04:45:16;18.30;;;10.15;;
75216;SDS011;63800;51.972;5.682;2022-10-31T04:47:41;19.20;;;9.93;;
75216;SDS011;63800;51.972;5.682;2022-10-31T04:50:07;15.80;;;10.02;;
75216;SDS011;63800;51.972;5.682;2022-10-31T04:52:37;19.05;;;11.18;;
75216;SDS011;63800;51.972;5.682;2022-10-31T04:55:04;15.98;;;11.00;;
75216;SDS011;63800;51.972;5.682;2022-10-31T04:57:30;19.42;;;12.10;;
75216;SDS011;63800;51.972;5.682;2022-10-31T04:59:55;19.50;;;10.43;;
75216;SDS011;63800;51.972;5.682;2022-10-31T05:02:21;19.75;;;11.70;;
75216;SDS011;63800;51.972;5.682;2022-10-31T05:04:46;17.42;;;10.90;;
75216;SDS011;63800;51.972;5.682;2022-10-31T05:07:11;20.17;;;11.30;;
75216;SDS011;63800;51.972;5.682;2022-10-31T05:09:37;19.70;;;11.35;;
75216;SDS011;63800;51.972;5.682;2022-10-31T05:12:02;17.60;;;11.13;;
75216;SDS011;63800;51.972;5.682;2022-10-31T05:14:28;14.45;;;10.20;;
75216;SDS011;63800;51.972;5.682;2022-10-31T05:16:53;20.15;;;11.38;;
75216;SDS011;63800;51.972;5.682;2022-10-31T05:19:19;17.88;;;10.07;;
75216;SDS011;63800;51.972;5.682;2022-10-31T05:21:44;17.20;;;10.45;;
75216;SDS011;63800;51.972;5.682;2022-10-31T05:24:09;14.35;;;9.52;;
75216;SDS011;63800;51.972;5.682;2022-10-31T05:26:35;15.18;;;9.70;;
75216;SDS011;63800;51.972;5.682;2022-10-31T05:29:01;13.75;;;9.25;;
75216;SDS011;63800;51.972;5.682;2022-10-31T05:31:26;15.93;;;9.98;;
75216;SDS011;63800;51.972;5.682;2022-10-31T05:33:51;17.88;;;9.50;;
75216;SDS011;63800;51.972;5.682;2022-10-31T05:36:17;19.83;;;11.20;;
75216;SDS011;63800;51.972;5.682;2022-10-31T05:38:42;18.30;;;11.43;;
75216;SDS011;63800;51.972;5.682;2022-10-31T05:41:08;20.20;;;10.60;;
75216;SDS011;63800;51.972;5.682;2022-10-31T05:43:34;17.25;;;10.75;;
75216;SDS011;63800;51.972;5.682;2022-10-31T05:46:00;17.85;;;10.10;;
75216;SDS011;63800;51.972;5.682;2022-10-31T05:48:25;18.77;;;10.80;;
75216;SDS011;63800;51.972;5.682;2022-10-31T05:50:51;18.90;;;10.95;;
75216;SDS011;63800;51.972;5.682;2022-10-31T05:53:17;20.05;;;10.93;;
75216;SDS011;63800;51.972;5.682;2022-10-31T05:55:42;18.60;;;12.00;;
75216;SDS011;63800;51.972;5.682;2022-10-31T05:58:08;18.40;;;10.95;;
75216;SDS011;63800;51.972;5.682;2022-10-31T06:00:34;18.40;;;11.38;;
75216;SDS011;63800;51.972;5.682;2022-10-31T06:03:00;19.25;;;11.25;;
75216;SDS011;63800;51.972;5.682;2022-10-31T06:05:28;20.98;;;12.73;;
75216;SDS011;63800;51.972;5.682;2022-10-31T06:07:54;17.55;;;10.98;;
75216;SDS011;63800;51.972;5.682;2022-10-31T06:10:20;22.40;;;13.13;;
75216;SDS011;63800;51.972;5.682;2022-10-31T06:12:46;22.65;;;13.00;;
75216;SDS011;63800;51.972;5.682;2022-10-31T06:15:12;21.67;;;13.00;;
75216;SDS011;63800;51.972;5.682;2022-10-31T06:17:37;25.05;;;14.25;;
75216;SDS011;63800;51.972;5.682;2022-10-31T06:20:03;27.08;;;14.38;;
75216;SDS011;63800;51.972;5.682;2022-10-31T06:22:29;25.75;;;13.38;;
75216;SDS011;63800;51.972;5.682;2022-10-31T06:24:54;23.27;;;13.00;;
75216;SDS011;63800;51.972;5.682;2022-10-31T06:27:20;27.83;;;13.27;;
75216;SDS011;63800;51.972;5.682;2022-10-31T06:29:46;26.20;;;14.20;;
75216;SDS011;63800;51.972;5.682;2022-10-31T06:32:12;23.55;;;14.00;;
75216;SDS011;63800;51.972;5.682;2022-10-31T06:34:38;23.00;;;13.23;;
75216;SDS011;63800;51.972;5.682;2022-10-31T06:37:05;26.02;;;13.98;;
75216;SDS011;63800;51.972;5.682;2022-10-31T06:39:32;22.77;;;13.13;;
75216;SDS011;63800;51.972;5.682;2022-10-31T06:41:57;24.50;;;13.73;;
75216;SDS011;63800;51.972;5.682;2022-10-31T06:44:23;21.20;;;13.02;;
75216;SDS011;63800;51.972;5.682;2022-10-31T06:46:48;19.42;;;13.27;;
75216;SDS011;63800;51.972;5.682;2022-10-31T06:49:14;20.00;;;12.60;;
75216;SDS011;63800;51.972;5.682;2022-10-31T06:51:39;22.20;;;13.52;;
75216;SDS011;63800;51.972;5.682;2022-10-31T06:54:04;24.02;;;13.82;;
75216;SDS011;63800;51.972;5.682;2022-10-31T06:56:30;24.13;;;14.15;;
75216;SDS011;63800;51.972;5.682;2022-10-31T06:58:55;23.02;;;12.82;;
75216;SDS011;63800;51.972;5.682;2022-10-31T07:01:21;24.75;;;13.57;;
75216;SDS011;63800;51.972;5.682;2022-10-31T07:03:46;25.85;;;14.45;;
75216;SDS011;63800;51.972;5.682;2022-10-31T07:06:12;21.23;;;13.07;;
75216;SDS011;63800;51.972;5.682;2022-10-31T07:08:37;24.50;;;13.98;;
75216;SDS011;63800;51.972;5.682;2022-10-31T07:11:02;29.17;;;13.80;;
75216;SDS011;63800;51.972;5.682;2022-10-31T07:13:28;25.95;;;13.65;;
75216;SDS011;63800;51.972;5.682;2022-10-31T07:15:54;23.65;;;13.32;;
75216;SDS011;63800;51.972;5.682;2022-10-31T07:18:23;24.08;;;13.52;;
75216;SDS011;63800;51.972;5.682;2022-10-31T07:20:49;23.55;;;13.38;;
75216;SDS011;63800;51.972;5.682;2022-10-31T07:23:14;24.85;;;14.40;;
75216;SDS011;63800;51.972;5.682;2022-10-31T07:25:40;23.48;;;13.75;;
75216;SDS011;63800;51.972;5.682;2022-10-31T07:28:06;24.00;;;13.95;;
75216;SDS011;63800;51.972;5.682;2022-10-31T07:30:32;24.75;;;13.65;;
75216;SDS011;63800;51.972;5.682;2022-10-31T07:32:57;27.77;;;15.00;;
75216;SDS011;63800;51.972;5.682;2022-10-31T07:35:24;27.25;;;14.88;;
75216;SDS011;63800;51.972;5.682;2022-10-31T07:37:51;27.40;;;14.85;;
75216;SDS011;63800;51.972;5.682;2022-10-31T07:40:17;26.20;;;15.73;;
75216;SDS011;63800;51.972;5.682;2022-10-31T07:42:44;26.85;;;15.80;;
75216;SDS011;63800;51.972;5.682;2022-10-31T07:45:11;33.25;;;16.92;;
75216;SDS011;63800;51.972;5.682;2022-10-31T07:47:39;23.17;;;13.55;;
75216;SDS011;63800;51.972;5.682;2022-10-31T07:50:16;27.15;;;15.43;;
75216;SDS011;63800;51.972;5.682;2022-10-31T07:53:12;23.70;;;14.68;;
75216;SDS011;63800;51.972;5.682;2022-10-31T07:55:38;25.77;;;15.05;;
75216;SDS011;63800;51.972;5.682;2022-10-31T07:58:04;24.35;;;14.35;;
75216;SDS011;63800;51.972;5.682;2022-10-31T08:00:32;26.45;;;13.45;;
75216;SDS011;63800;51.972;5.682;2022-10-31T08:03:00;26.80;;;14.60;;
75216;SDS011;63800;51.972;5.682;2022-10-31T08:05:26;24.65;;;14.07;;
75216;SDS011;63800;51.972;5.682;2022-10-31T08:07:52;27.83;;;15.13;;
75216;SDS011;63800;51.972;5.682;2022-10-31T08:10:18;30.65;;;16.85;;
75216;SDS011;63800;51.972;5.682;2022-10-31T08:12:43;29.23;;;15.35;;
75216;SDS011;63800;51.972;5.682;2022-10-31T08:15:08;29.80;;;14.82;;
75216;SDS011;63800;51.972;5.682;2022-10-31T08:17:35;28.67;;;15.10;;
75216;SDS011;63800;51.972;5.682;2022-10-31T08:20:00;32.03;;;16.20;;
75216;SDS011;63800;51.972;5.682;2022-10-31T08:22:26;31.75;;;16.10;;
75216;SDS011;63800;51.972;5.682;2022-10-31T08:24:51;30.88;;;16.00;;
75216;SDS011;63800;51.972;5.682;2022-10-31T08:27:17;31.33;;;16.05;;
75216;SDS011;63800;51.972;5.682;2022-10-31T08:29:42;28.05;;;14.95;;
75216;SDS011;63800;51.972;5.682;2022-10-31T08:32:08;27.45;;;13.13;;
75216;SDS011;63800;51.972;5.682;2022-10-31T08:34:33;25.40;;;13.88;;
75216;SDS011;63800;51.972;5.682;2022-10-31T08:36:58;23.92;;;12.32;;
75216;SDS011;63800;51.972;5.682;2022-10-31T08:39:24;20.20;;;13.00;;
75216;SDS011;63800;51.972;5.682;2022-10-31T08:41:49;22.30;;;12.38;;
75216;SDS011;63800;51.972;5.682;2022-10-31T08:44:16;18.15;;;10.80;;
75216;SDS011;63800;51.972;5.682;2022-10-31T08:46:41;20.85;;;11.05;;
75216;SDS011;63800;51.972;5.682;2022-10-31T08:49:07;21.27;;;11.55;;
75216;SDS011;63800;51.972;5.682;2022-10-31T08:51:32;21.80;;;11.95;;
75216;SDS011;63800;51.972;5.682;2022-10-31T08:53:57;18.65;;;11.30;;
75216;SDS011;63800;51.972;5.682;2022-10-31T08:56:23;20.08;;;10.68;;
75216;SDS011;63800;51.972;5.682;2022-10-31T08:58:48;18.60;;;10.80;;
75216;SDS011;63800;51.972;5.682;2022-10-31T09:01:15;18.05;;;10.95;;
75216;SDS011;63800;51.972;5.682;2022-10-31T09:03:41;21.88;;;11.68;;
75216;SDS011;63800;51.972;5.682;2022-10-31T09:06:06;19.80;;;12.38;;
75216;SDS011;63800;51.972;5.682;2022-10-31T09:08:34;19.25;;;11.02;;
75216;SDS011;63800;51.972;5.682;2022-10-31T09:11:00;19.95;;;10.95;;
75216;SDS011;63800;51.972;5.682;2022-10-31T09:13:25;19.10;;;10.65;;
75216;SDS011;63800;51.972;5.682;2022-10-31T09:15:51;17.95;;;10.32;;
75216;SDS011;63800;51.972;5.682;2022-10-31T09:18:18;20.38;;;11.50;;
75216;SDS011;63800;51.972;5.682;2022-10-31T09:20:45;19.80;;;10.95;;
75216;SDS011;63800;51.972;5.682;2022-10-31T09:23:13;18.88;;;10.50;;
75216;SDS011;63800;51.972;5.682;2022-10-31T09:25:40;17.30;;;10.25;;
75216;SDS011;63800;51.972;5.682;2022-10-31T09:28:07;17.05;;;10.40;;
75216;SDS011;63800;51.972;5.682;2022-10-31T09:30:38;15.88;;;9.90;;
75216;SDS011;63800;51.972;5.682;2022-10-31T09:33:08;21.38;;;11.75;;
75216;SDS011;63800;51.972;5.682;2022-10-31T09:35:35;18.75;;;10.70;;
75216;SDS011;63800;51.972;5.682;2022-10-31T09:38:01;16.73;;;10.30;;
75216;SDS011;63800;51.972;5.682;2022-10-31T09:40:39;19.67;;;11.02;;
75216;SDS011;63800;51.972;5.682;2022-10-31T09:51:08;19.95;;;11.10;;
75216;SDS011;63800;51.972;5.682;2022-10-31T09:53:42;17.65;;;11.25;;
75216;SDS011;63800;51.972;5.682;2022-10-31T09:56:14;20.55;;;11.65;;
75216;SDS011;63800;51.972;5.682;2022-10-31T09:58:46;20.90;;;11.55;;
75216;SDS011;63800;51.972;5.682;2022-10-31T10:01:38;16.60;;;11.00;;
75216;SDS011;63800;51.972;5.682;2022-10-31T10:04:20;20.67;;;12.15;;
75216;SDS011;63800;51.972;5.682;2022-10-31T10:07:10;19.58;;;11.35;;
75216;SDS011;63800;51.972;5.682;2022-10-31T10:09:41;22.92;;;12.75;;
75216;SDS011;63800;51.972;5.682;2022-10-31T10:14:50;20.67;;;12.40;;
75216;SDS011;63800;51.972;5.682;2022-10-31T10:17:37;25.58;;;12.77;;
75216;SDS011;63800;51.972;5.682;2022-10-31T10:20:35;23.30;;;12.55;;
75216;SDS011;63800;51.972;5.682;2022-10-31T10:23:22;24.10;;;12.27;;
75216;SDS011;63800;51.972;5.682;2022-10-31T10:26:01;22.50;;;12.48;;
75216;SDS011;63800;51.972;5.682;2022-10-31T10:28:36;21.35;;;12.38;;
75216;SDS011;63800;51.972;5.682;2022-10-31T10:33:43;28.10;;;13.43;;
75216;SDS011;63800;51.972;5.682;2022-10-31T10:36:24;23.85;;;14.20;;
75216;SDS011;63800;51.972;5.682;2022-10-31T10:39:04;25.45;;;13.82;;
75216;SDS011;63800;51.972;5.682;2022-10-31T10:41:36;24.42;;;14.63;;
75216;SDS011;63800;51.972;5.682;2022-10-31T10:44:08;32.40;;;15.75;;
75216;SDS011;63800;51.972;5.682;2022-10-31T10:49:30;29.25;;;15.55;;
75216;SDS011;63800;51.972;5.682;2022-10-31T10:58:29;29.83;;;15.25;;
75216;SDS011;63800;51.972;5.682;2022-10-31T11:03:11;33.33;;;15.68;;
75216;SDS011;63800;51.972;5.682;2022-10-31T11:05:54;30.48;;;16.92;;
75216;SDS011;63800;51.972;5.682;2022-10-31T11:08:41;27.88;;;15.20;;
75216;SDS011;63800;51.972;5.682;2022-10-31T11:14:14;36.97;;;17.70;;
75216;SDS011;63800;51.972;5.682;2022-10-31T11:16:42;34.45;;;18.13;;
75216;SDS011;63800;51.972;5.682;2022-10-31T11:21:43;34.97;;;19.60;;
75216;SDS011;63800;51.972;5.682;2022-10-31T11:26:36;34.60;;;19.38;;
75216;SDS011;63800;51.972;5.682;2022-10-31T11:29:22;33.15;;;17.90;;
75216;SDS011;63800;51.972;5.682;2022-10-31T11:31:53;34.92;;;17.58;;
75216;SDS011;63800;51.972;5.682;2022-10-31T11:36:48;38.13;;;18.75;;
75216;SDS011;63800;51.972;5.682;2022-10-31T11:39:20;32.60;;;18.42;;
75216;SDS011;63800;51.972;5.682;2022-10-31T11:41:49;42.42;;;18.63;;
75216;SDS011;63800;51.972;5.682;2022-10-31T11:44:21;34.03;;;17.83;;
75216;SDS011;63800;51.972;5.682;2022-10-31T11:47:00;35.25;;;17.55;;
75216;SDS011;63800;51.972;5.682;2022-10-31T11:49:32;38.90;;;18.33;;
75216;SDS011;63800;51.972;5.682;2022-10-31T11:54:46;38.25;;;17.88;;
75216;SDS011;63800;51.972;5.682;2022-10-31T11:59:54;33.25;;;17.83;;
75216;SDS011;63800;51.972;5.682;2022-10-31T12:02:21;34.65;;;17.95;;
75216;SDS011;63800;51.972;5.682;2022-10-31T12:04:49;41.38;;;18.60;;
75216;SDS011;63800;51.972;5.682;2022-10-31T12:07:25;40.28;;;19.08;;
75216;SDS011;63800;51.972;5.682;2022-10-31T12:09:50;35.90;;;18.88;;
75216;SDS011;63800;51.972;5.682;2022-10-31T12:17:48;33.65;;;17.73;;
75216;SDS011;63800;51.972;5.682;2022-10-31T12:20:25;36.10;;;17.48;;
75216;SDS011;63800;51.972;5.682;2022-10-31T12:42:17;37.75;;;18.98;;
75216;SDS011;63800;51.972;5.682;2022-10-31T12:45:07;38.22;;;19.02;;
75216;SDS011;63800;51.972;5.682;2022-10-31T12:56:50;42.00;;;19.52;;
75216;SDS011;63800;51.972;5.682;2022-10-31T13:07:03;37.17;;;18.38;;
75216;SDS011;63800;51.972;5.682;2022-10-31T13:09:42;42.75;;;19.17;;
75216;SDS011;63800;51.972;5.682;2022-10-31T13:12:19;35.80;;;18.13;;
75216;SDS011;63800;51.972;5.682;2022-10-31T13:14:51;39.70;;;20.30;;
75216;SDS011;63800;51.972;5.682;2022-10-31T13:17:36;40.65;;;18.40;;
75216;SDS011;63800;51.972;5.682;2022-10-31T13:20:24;39.53;;;19.05;;
75216;SDS011;63800;51.972;5.682;2022-10-31T13:22:55;39.22;;;19.15;;
75216;SDS011;63800;51.972;5.682;2022-10-31T13:25:30;39.67;;;19.70;;
75216;SDS011;63800;51.972;5.682;2022-10-31T13:30:27;41.88;;;18.25;;
75216;SDS011;63800;51.972;5.682;2022-10-31T13:35:45;40.80;;;19.75;;
75216;SDS011;63800;51.972;5.682;2022-10-31T13:38:53;39.28;;;19.52;;
75216;SDS011;63800;51.972;5.682;2022-10-31T13:41:43;36.13;;;18.50;;
75216;SDS011;63800;51.972;5.682;2022-10-31T13:44:26;39.08;;;18.45;;
75216;SDS011;63800;51.972;5.682;2022-10-31T13:46:53;41.30;;;19.83;;
75216;SDS011;63800;51.972;5.682;2022-10-31T13:52:05;40.10;;;18.20;;
75216;SDS011;63800;51.972;5.682;2022-10-31T13:54:37;39.80;;;19.05;;
75216;SDS011;63800;51.972;5.682;2022-10-31T13:57:21;38.38;;;20.52;;
75216;SDS011;63800;51.972;5.682;2022-10-31T13:59:48;39.50;;;17.52;;
75216;SDS011;63800;51.972;5.682;2022-10-31T14:02:17;36.83;;;18.90;;
75216;SDS011;63800;51.972;5.682;2022-10-31T14:05:19;40.25;;;18.98;;
75216;SDS011;63800;51.972;5.682;2022-10-31T14:07:48;40.90;;;18.23;;
75216;SDS011;63800;51.972;5.682;2022-10-31T14:13:06;38.25;;;18.73;;
75216;SDS011;63800;51.972;5.682;2022-10-31T14:15:57;36.22;;;18.02;;
75216;SDS011;63800;51.972;5.682;2022-10-31T14:18:29;36.20;;;17.83;;
75216;SDS011;63800;51.972;5.682;2022-10-31T14:20:57;36.70;;;18.08;;
75216;SDS011;63800;51.972;5.682;2022-10-31T14:26:33;35.45;;;16.95;;
75216;SDS011;63800;51.972;5.682;2022-10-31T14:28:55;32.22;;;16.17;;
75216;SDS011;63800;51.972;5.682;2022-10-31T14:31:41;36.67;;;16.52;;
75216;SDS011;63800;51.972;5.682;2022-10-31T14:37:10;33.92;;;16.85;;
75216;SDS011;63800;51.972;5.682;2022-10-31T14:39:49;41.60;;;17.25;;
75216;SDS011;63800;51.972;5.682;2022-10-31T14:45:31;39.08;;;16.65;;
75216;SDS011;63800;51.972;5.682;2022-10-31T14:51:15;35.75;;;17.63;;
75216;SDS011;63800;51.972;5.682;2022-10-31T14:56:29;36.20;;;16.88;;
75216;SDS011;63800;51.972;5.682;2022-10-31T14:59:00;36.38;;;16.90;;
75216;SDS011;63800;51.972;5.682;2022-10-31T15:01:29;33.65;;;16.75;;
75216;SDS011;63800;51.972;5.682;2022-10-31T15:04:04;34.75;;;17.58;;
75216;SDS011;63800;51.972;5.682;2022-10-31T15:06:40;30.88;;;15.80;;
75216;SDS011;63800;51.972;5.682;2022-10-31T15:11:51;37.17;;;17.43;;
75216;SDS011;63800;51.972;5.682;2022-10-31T15:14:21;31.63;;;16.65;;
75216;SDS011;63800;51.972;5.682;2022-10-31T15:16:51;35.38;;;17.90;;
75216;SDS011;63800;51.972;5.682;2022-10-31T15:19:20;39.33;;;16.83;;
75216;SDS011;63800;51.972;5.682;2022-10-31T15:21:51;37.83;;;17.77;;
75216;SDS011;63800;51.972;5.682;2022-10-31T15:24:18;31.10;;;16.17;;
75216;SDS011;63800;51.972;5.682;2022-10-31T15:26:50;38.20;;;16.15;;
75216;SDS011;63800;51.972;5.682;2022-10-31T15:29:19;39.05;;;16.60;;
75216;SDS011;63800;51.972;5.682;2022-10-31T15:31:48;32.97;;;16.30;;
75216;SDS011;63800;51.972;5.682;2022-10-31T15:34:19;34.28;;;17.15;;
75216;SDS011;63800;51.972;5.682;2022-10-31T15:37:02;34.83;;;16.08;;
75216;SDS011;63800;51.972;5.682;2022-10-31T15:39:28;34.78;;;16.33;;
75216;SDS011;63800;51.972;5.682;2022-10-31T15:41:54;33.45;;;16.10;;
75216;SDS011;63800;51.972;5.682;2022-10-31T15:44:27;31.65;;;16.60;;
75216;SDS011;63800;51.972;5.682;2022-10-31T15:46:59;34.28;;;16.33;;
75216;SDS011;63800;51.972;5.682;2022-10-31T15:49:37;32.92;;;15.77;;
75216;SDS011;63800;51.972;5.682;2022-10-31T15:52:15;34.80;;;15.63;;
75216;SDS011;63800;51.972;5.682;2022-10-31T15:54:54;32.58;;;15.52;;
75216;SDS011;63800;51.972;5.682;2022-10-31T15:57:23;39.38;;;17.27;;
75216;SDS011;63800;51.972;5.682;2022-10-31T15:59:51;32.33;;;16.23;;
75216;SDS011;63800;51.972;5.682;2022-10-31T16:02:26;30.73;;;16.92;;
75216;SDS011;63800;51.972;5.682;2022-10-31T16:04:59;39.35;;;15.98;;
75216;SDS011;63800;51.972;5.682;2022-10-31T16:07:26;35.78;;;16.67;;
75216;SDS011;63800;51.972;5.682;2022-10-31T16:09:54;32.90;;;16.25;;
75216;SDS011;63800;51.972;5.682;2022-10-31T16:12:22;35.33;;;16.88;;
75216;SDS011;63800;51.972;5.682;2022-10-31T16:14:50;33.88;;;16.38;;
75216;SDS011;63800;51.972;5.682;2022-10-31T16:17:17;37.30;;;15.60;;
75216;SDS011;63800;51.972;5.682;2022-10-31T16:19:47;35.17;;;16.00;;
75216;SDS011;63800;51.972;5.682;2022-10-31T16:22:22;43.38;;;17.55;;
75216;SDS011;63800;51.972;5.682;2022-10-31T16:24:59;38.83;;;17.45;;
75216;SDS011;63800;51.972;5.682;2022-10-31T16:27:30;41.38;;;17.15;;
75216;SDS011;63800;51.972;5.682;2022-10-31T16:29:57;35.97;;;17.67;;
75216;SDS011;63800;51.972;5.682;2022-10-31T16:37:27;38.15;;;16.73;;
75216;SDS011;63800;51.972;5.682;2022-10-31T16:39:52;35.63;;;17.38;;
75216;SDS011;63800;51.972;5.682;2022-10-31T16:42:18;35.42;;;17.00;;
75216;SDS011;63800;51.972;5.682;2022-10-31T16:44:44;29.85;;;15.07;;
75216;SDS011;63800;51.972;5.682;2022-10-31T16:49:36;37.58;;;17.75;;
75216;SDS011;63800;51.972;5.682;2022-10-31T16:52:02;33.17;;;16.13;;
75216;SDS011;63800;51.972;5.682;2022-10-31T16:54:30;30.23;;;15.60;;
75216;SDS011;63800;51.972;5.682;2022-10-31T16:56:57;31.38;;;15.90;;
75216;SDS011;63800;51.972;5.682;2022-10-31T16:59:23;33.90;;;16.52;;
75216;SDS011;63800;51.972;5.682;2022-10-31T17:01:49;34.13;;;15.70;;
75216;SDS011;63800;51.972;5.682;2022-10-31T17:04:14;37.95;;;16.83;;
75216;SDS011;63800;51.972;5.682;2022-10-31T17:06:40;36.40;;;16.98;;
75216;SDS011;63800;51.972;5.682;2022-10-31T17:09:07;28.52;;;16.10;;
75216;SDS011;63800;51.972;5.682;2022-10-31T17:11:33;34.72;;;16.60;;
75216;SDS011;63800;51.972;5.682;2022-10-31T17:13:59;36.58;;;17.92;;